Time;durP1;ratioP1;P1;durP2;ratioP2;P2;SDS_P1;SDS_P2;PMS_P1;PMS_P2;Temp;Humidity;BMP_temperature;BMP_pressure;BME280_temperature;BME280_humidity;BME280_pressure;Samples;Min_cycle;Max_cycle;Signal;HPM_P1;HPM_P2
2022/06/18 00:01:33;;;;;;;626.00;580.63;;;18.80;99.90;;;;;;5115445;28;20058;-61
2022/06/18 00:04:04;;;;;;;694.42;642.97;;;18.80;99.90;;;;;;5115802;28;20044;-61
2022/06/18 00:06:32;;;;;;;677.15;627.65;;;18.80;99.90;;;;;;5114770;28;20478;-61
2022/06/18 00:08:59;;;;;;;666.08;618.30;;;18.80;99.90;;;;;;5115549;28;20043;-61
2022/06/18 00:14:10;;;;;;;717.70;664.60;;;18.80;99.90;;;;;;5095737;28;20051;-61
2022/06/18 00:16:36;;;;;;;638.25;588.35;;;18.80;99.90;;;;;;5115649;28;20105;-61
2022/06/18 00:19:02;;;;;;;413.25;377.65;;;18.90;99.90;;;;;;5115300;28;20043;-61
2022/06/18 00:21:28;;;;;;;1999.90;999.90;;;19.00;99.90;;;;;;5114991;28;20048;-61
2022/06/18 00:23:54;;;;;;;1999.90;999.90;;;19.10;99.90;;;;;;5115298;28;20043;-61
2022/06/18 00:26:20;;;;;;;1999.90;999.90;;;19.20;99.90;;;;;;5114764;28;20047;-61
2022/06/18 00:28:46;;;;;;;1999.90;999.90;;;19.20;99.90;;;;;;5115626;28;20426;-61
2022/06/18 00:31:12;;;;;;;1999.90;999.90;;;19.20;99.90;;;;;;5115041;28;20051;-61
2022/06/18 00:33:40;;;;;;;1999.90;999.90;;;19.20;99.90;;;;;;5114617;28;20063;-61
2022/06/18 00:36:13;;;;;;;1999.90;999.90;;;19.20;99.90;;;;;;5115434;28;20513;-61
2022/06/18 00:38:42;;;;;;;1999.90;999.90;;;19.10;99.90;;;;;;5115278;28;20048;-61
2022/06/18 00:41:11;;;;;;;1062.03;773.92;;;19.10;99.90;;;;;;5113828;28;20182;-61
2022/06/18 00:43:44;;;;;;;1999.90;999.90;;;19.20;99.90;;;;;;5096686;28;20055;-61
2022/06/18 00:46:27;;;;;;;1999.90;999.90;;;19.20;99.90;;;;;;5115173;28;20128;-61
2022/06/18 00:48:53;;;;;;;763.72;710.00;;;19.20;99.90;;;;;;5114075;28;20047;-61
2022/06/18 00:51:24;;;;;;;736.25;685.22;;;19.20;99.90;;;;;;5096299;28;20126;-61
2022/06/18 00:53:55;;;;;;;699.72;650.92;;;19.10;99.90;;;;;;5113773;28;20492;-61
2022/06/18 00:56:31;;;;;;;759.60;706.35;;;19.10;99.90;;;;;;5114015;28;20054;-61
2022/06/18 00:59:04;;;;;;;740.35;689.45;;;19.20;99.90;;;;;;5114055;28;20430;-61
2022/06/18 01:01:35;;;;;;;740.67;689.17;;;19.10;99.90;;;;;;5114029;28;20052;-61
2022/06/18 01:04:01;;;;;;;737.03;687.22;;;19.20;99.90;;;;;;5114737;28;20069;-61
2022/06/18 01:06:31;;;;;;;634.20;595.92;;;19.20;99.90;;;;;;5114360;28;20477;-61
2022/06/18 01:09:01;;;;;;;704.92;660.38;;;19.20;99.90;;;;;;5078399;28;20043;-61
2022/06/18 01:11:31;;;;;;;599.10;564.28;;;19.10;99.90;;;;;;5114884;28;20083;-61
2022/06/18 01:13:58;;;;;;;675.72;633.90;;;18.80;99.90;;;;;;5078776;28;20465;-61
2022/06/18 01:16:25;;;;;;;733.83;686.17;;;18.50;99.90;;;;;;5095515;28;20104;-61
2022/06/18 01:18:52;;;;;;;725.03;678.40;;;18.30;99.90;;;;;;5096418;28;20086;-61
2022/06/18 01:21:25;;;;;;;727.53;679.42;;;18.10;99.90;;;;;;5095575;28;20043;-61
2022/06/18 01:24:17;;;;;;;769.35;716.83;;;18.00;99.90;;;;;;5113772;28;20055;-61
2022/06/18 01:26:47;;;;;;;1999.90;999.90;;;17.90;99.90;;;;;;5075592;28;20151;-61
2022/06/18 01:29:15;;;;;;;1999.90;999.90;;;17.80;99.90;;;;;;5075487;28;20090;-61
2022/06/18 01:31:43;;;;;;;643.33;601.65;;;17.70;99.90;;;;;;5074825;28;20044;-61
2022/06/18 01:34:10;;;;;;;728.45;679.75;;;17.70;99.90;;;;;;5084424;28;20079;-61
2022/06/18 01:36:48;;;;;;;644.38;604.63;;;17.70;99.90;;;;;;5094741;28;20044;-61
2022/06/18 01:39:19;;;;;;;678.45;635.25;;;17.70;99.90;;;;;;5096177;28;20044;-61
2022/06/18 01:41:53;;;;;;;583.72;549.25;;;17.60;99.90;;;;;;5095728;28;20043;-61
2022/06/18 01:44:28;;;;;;;532.72;501.15;;;17.50;99.90;;;;;;5112683;28;20073;-61
2022/06/18 01:46:58;;;;;;;1999.90;999.90;;;17.50;99.90;;;;;;5095579;28;20040;-61
2022/06/18 01:49:28;;;;;;;1026.75;741.70;;;17.50;99.90;;;;;;5095843;28;20044;-61
2022/06/18 01:51:57;;;;;;;630.92;591.67;;;17.60;99.90;;;;;;5112497;28;20039;-61
2022/06/18 01:54:36;;;;;;;582.67;548.13;;;17.60;99.90;;;;;;5095468;28;20085;-61
2022/06/18 01:57:10;;;;;;;602.42;567.03;;;17.60;99.90;;;;;;5095679;28;20047;-61
2022/06/18 01:59:41;;;;;;;585.05;550.97;;;17.50;99.90;;;;;;5094556;28;20050;-61
2022/06/18 02:02:08;;;;;;;580.38;546.22;;;17.40;99.90;;;;;;5075043;28;20490;-61
2022/06/18 02:04:34;;;;;;;565.58;534.00;;;17.30;99.90;;;;;;5089765;28;20178;-61
2022/06/18 02:07:01;;;;;;;523.28;494.45;;;17.20;99.90;;;;;;5094645;28;20048;-61
2022/06/18 02:09:29;;;;;;;614.67;576.47;;;17.10;99.90;;;;;;5113084;28;20144;-61
2022/06/18 02:11:57;;;;;;;586.38;551.33;;;17.00;99.90;;;;;;5112834;28;20742;-61
2022/06/18 02:14:25;;;;;;;538.83;507.63;;;17.00;99.90;;;;;;5113071;28;20066;-61
2022/06/18 02:16:54;;;;;;;545.92;515.67;;;17.00;99.90;;;;;;5078211;28;20562;-61
2022/06/18 02:19:21;;;;;;;497.10;470.17;;;17.00;99.90;;;;;;5112264;28;20036;-61
2022/06/18 02:21:50;;;;;;;494.63;467.48;;;17.00;99.90;;;;;;5112579;28;20047;-61
2022/06/18 02:24:16;;;;;;;620.42;583.13;;;17.00;99.90;;;;;;5095286;28;20051;-61
2022/06/18 02:26:45;;;;;;;632.60;593.55;;;17.00;99.90;;;;;;5112219;28;20039;-61
2022/06/18 02:29:23;;;;;;;673.95;630.75;;;17.00;99.90;;;;;;5112787;28;20047;-61
2022/06/18 02:31:51;;;;;;;467.48;442.92;;;17.10;99.90;;;;;;5095170;28;20057;-61
2022/06/18 02:34:23;;;;;;;530.35;500.85;;;17.20;99.90;;;;;;5094257;28;20043;-61
2022/06/18 02:36:48;;;;;;;591.90;557.22;;;17.30;99.90;;;;;;5093949;28;20063;-61
2022/06/18 02:39:33;;;;;;;599.65;563.97;;;17.40;99.90;;;;;;5112878;28;20382;-61
2022/06/18 02:42:03;;;;;;;562.35;530.03;;;17.40;99.90;;;;;;5094144;28;20409;-60
2022/06/18 02:44:30;;;;;;;529.70;499.95;;;17.40;99.90;;;;;;5094341;28;20044;-61
2022/06/18 02:46:58;;;;;;;525.60;497.30;;;17.40;99.90;;;;;;5112191;28;20055;-60
2022/06/18 02:49:24;;;;;;;567.97;536.08;;;17.40;99.90;;;;;;5112928;28;20117;-61
2022/06/18 02:51:50;;;;;;;619.17;581.22;;;17.40;99.90;;;;;;5094867;28;20043;-61
2022/06/18 02:54:19;;;;;;;552.65;521.00;;;17.40;99.90;;;;;;5112085;28;20048;-61
2022/06/18 02:56:46;;;;;;;583.45;548.78;;;17.40;99.90;;;;;;5094808;28;20071;-61
2022/06/18 02:59:12;;;;;;;627.70;588.85;;;17.30;99.90;;;;;;5094676;28;20405;-61
2022/06/18 03:01:41;;;;;;;476.35;450.65;;;17.30;99.90;;;;;;5076627;28;20082;-61
2022/06/18 03:04:07;;;;;;;578.97;544.83;;;17.30;99.90;;;;;;5094780;28;20116;-61
2022/06/18 03:06:33;;;;;;;568.50;534.65;;;17.30;99.90;;;;;;5094269;28;20473;-61
2022/06/18 03:09:00;;;;;;;483.13;456.73;;;17.40;99.90;;;;;;5093851;28;20401;-61
2022/06/18 03:14:14;;;;;;;531.63;500.02;;;17.60;99.90;;;;;;5113106;28;20409;-61
2022/06/18 03:16:41;;;;;;;515.00;485.38;;;17.80;99.90;;;;;;5095887;28;20053;-61
2022/06/18 03:19:16;;;;;;;498.90;470.90;;;17.90;99.90;;;;;;5081352;28;20440;-61
2022/06/18 03:21:46;;;;;;;444.42;420.45;;;18.00;99.90;;;;;;5098192;28;20047;-61
2022/06/18 03:24:14;;;;;;;492.75;465.60;;;18.00;99.90;;;;;;5080591;28;20126;-61
2022/06/18 03:26:40;;;;;;;520.70;489.92;;;18.00;99.90;;;;;;5098024;28;20601;-61
2022/06/18 03:29:10;;;;;;;535.53;503.45;;;18.00;99.90;;;;;;5097401;28;20371;-61
2022/06/18 03:31:37;;;;;;;484.40;457.88;;;18.00;99.90;;;;;;5098216;28;20059;-61
2022/06/18 03:34:03;;;;;;;458.63;433.80;;;18.00;99.90;;;;;;5097835;28;20554;-61
2022/06/18 03:36:31;;;;;;;444.65;421.48;;;17.90;99.90;;;;;;5097740;28;20039;-61
2022/06/18 03:38:57;;;;;;;493.42;466.10;;;17.80;99.90;;;;;;5080676;28;20048;-61
2022/06/18 03:41:24;;;;;;;515.80;486.52;;;17.80;99.90;;;;;;5097379;28;20405;-60
2022/06/18 03:43:52;;;;;;;416.85;395.10;;;17.70;99.90;;;;;;5097371;28;20042;-61
2022/06/18 03:46:20;;;;;;;429.42;407.00;;;17.70;99.90;;;;;;5097792;28;20504;-60
2022/06/18 03:48:48;;;;;;;443.55;420.25;;;17.70;99.90;;;;;;5097630;28;20046;-61
2022/06/18 03:51:17;;;;;;;484.33;456.70;;;17.60;99.90;;;;;;5097434;28;20039;-60
2022/06/18 03:53:44;;;;;;;520.83;489.85;;;17.70;99.90;;;;;;5081146;28;20083;-60
2022/06/18 03:56:12;;;;;;;483.85;457.50;;;17.70;99.90;;;;;;5097117;28;20040;-61
2022/06/18 03:58:42;;;;;;;502.67;474.30;;;17.70;99.90;;;;;;5097373;28;20435;-61
2022/06/18 04:01:10;;;;;;;563.95;530.38;;;17.60;99.90;;;;;;5097681;28;20613;-60
2022/06/18 04:03:37;;;;;;;567.53;532.00;;;17.60;99.90;;;;;;5096601;28;20075;-60
2022/06/18 04:06:04;;;;;;;630.47;585.67;;;17.60;99.90;;;;;;5096826;28;20482;-60
2022/06/18 04:08:31;;;;;;;642.05;601.03;;;17.50;99.90;;;;;;5097772;28;20050;-60
2022/06/18 04:11:00;;;;;;;535.47;502.50;;;17.50;99.90;;;;;;5097123;28;20414;-61
2022/06/18 04:13:28;;;;;;;542.85;510.75;;;17.50;99.90;;;;;;5079427;28;20051;-60
2022/06/18 04:16:11;;;;;;;596.33;559.88;;;17.40;99.90;;;;;;5097686;28;20043;-60
2022/06/18 04:18:38;;;;;;;594.10;554.60;;;17.40;99.90;;;;;;5096421;28;20047;-61
2022/06/18 04:21:07;;;;;;;598.30;556.03;;;17.40;99.90;;;;;;5097429;28;20043;-60
2022/06/18 04:23:36;;;;;;;1999.90;999.90;;;17.40;99.90;;;;;;5097078;28;20083;-61
2022/06/18 04:26:04;;;;;;;617.17;577.45;;;17.40;99.90;;;;;;5079338;28;20055;-60
2022/06/18 04:28:30;;;;;;;604.92;562.03;;;17.30;99.90;;;;;;5097321;28;20044;-60
2022/06/18 04:31:02;;;;;;;1999.90;999.90;;;17.30;99.90;;;;;;5096952;28;20537;-60
2022/06/18 04:33:32;;;;;;;1999.90;999.90;;;17.30;99.90;;;;;;5095650;28;20367;-61
2022/06/18 04:36:29;;;;;;;1999.90;999.90;;;17.20;99.90;;;;;;5097359;28;20554;-60
2022/06/18 04:38:55;;;;;;;1662.30;901.08;;;17.20;99.90;;;;;;5097084;28;20048;-60
2022/06/18 04:41:34;;;;;;;1999.90;999.90;;;17.30;99.90;;;;;;5095420;28;20040;-60
2022/06/18 04:44:08;;;;;;;1999.90;946.08;;;17.30;99.90;;;;;;5097142;28;20077;-61
2022/06/18 04:46:34;;;;;;;1999.90;960.75;;;17.20;99.90;;;;;;5096061;28;20090;-61
2022/06/18 04:49:00;;;;;;;1919.60;903.80;;;17.20;99.90;;;;;;5095986;28;20107;-61
2022/06/18 04:51:26;;;;;;;1999.90;979.83;;;17.20;99.90;;;;;;5097039;28;20043;-61
2022/06/18 04:53:52;;;;;;;1999.90;999.90;;;17.20;99.90;;;;;;5114276;28;20079;-60
2022/06/18 04:56:20;;;;;;;1999.90;999.90;;;17.30;99.90;;;;;;5096292;28;20044;-60
2022/06/18 04:58:47;;;;;;;1998.43;999.90;;;17.30;99.90;;;;;;5096473;28;20134;-61
2022/06/18 05:01:17;;;;;;;1999.90;988.70;;;17.30;99.90;;;;;;5095751;28;20040;-61
2022/06/18 05:03:59;;;;;;;1999.90;999.90;;;17.40;99.90;;;;;;5095328;28;20557;-61
2022/06/18 05:06:46;;;;;;;1999.90;999.90;;;17.40;99.90;;;;;;5075834;28;20032;-61
2022/06/18 05:09:24;;;;;;;1999.90;801.63;;;17.40;99.90;;;;;;5095995;28;20046;-61
2022/06/18 05:12:09;;;;;;;1999.90;999.90;;;17.50;99.90;;;;;;5096195;28;20482;-61
2022/06/18 05:14:43;;;;;;;1999.90;999.90;;;17.50;99.90;;;;;;5094476;28;20044;-61
2022/06/18 05:17:17;;;;;;;1999.90;999.90;;;17.60;99.90;;;;;;5078463;28;20044;-61
2022/06/18 05:19:44;;;;;;;1800.15;912.28;;;17.70;99.90;;;;;;5095259;28;20054;-61
2022/06/18 05:22:11;;;;;;;842.13;776.80;;;17.80;99.90;;;;;;5095456;28;20047;-60
2022/06/18 05:24:38;;;;;;;1280.63;926.60;;;17.90;99.90;;;;;;5114267;28;20044;-60
2022/06/18 05:27:17;;;;;;;1619.43;999.90;;;17.90;99.90;;;;;;5095855;28;20058;-61
2022/06/18 05:29:42;;;;;;;1403.32;999.90;;;18.00;99.90;;;;;;5095521;28;20047;-61
2022/06/18 05:32:08;;;;;;;1360.60;999.90;;;18.10;99.90;;;;;;5113849;28;20050;-61
2022/06/18 05:34:36;;;;;;;1485.70;990.55;;;18.10;99.90;;;;;;5078896;28;20054;-60
2022/06/18 05:37:07;;;;;;;1264.38;993.08;;;18.10;99.90;;;;;;5095309;28;20040;-61
2022/06/18 05:39:33;;;;;;;932.25;843.58;;;18.10;99.90;;;;;;5113269;28;20134;-61
2022/06/18 05:41:58;;;;;;;1021.35;905.50;;;18.20;99.90;;;;;;5078412;28;20135;-61
2022/06/18 05:44:26;;;;;;;838.13;767.53;;;18.30;99.90;;;;;;5095046;28;20047;-61
2022/06/18 05:46:52;;;;;;;687.42;638.17;;;18.30;99.90;;;;;;5114140;28;20482;-61
2022/06/18 05:49:17;;;;;;;909.83;826.97;;;18.40;99.90;;;;;;5094994;28;20092;-61
2022/06/18 05:51:43;;;;;;;921.65;829.85;;;18.40;99.90;;;;;;5093529;28;20465;-61
2022/06/18 05:54:09;;;;;;;820.30;750.22;;;18.50;99.90;;;;;;5095332;28;20090;-60
2022/06/18 05:56:51;;;;;;;611.25;571.35;;;18.50;99.90;;;;;;5094809;28;20039;-61
2022/06/18 05:59:25;;;;;;;691.63;640.75;;;18.60;99.90;;;;;;5094909;28;20051;-60
2022/06/18 06:01:51;;;;;;;707.88;651.83;;;18.70;99.90;;;;;;5094627;28;20076;-61
2022/06/18 06:04:19;;;;;;;664.00;617.92;;;18.80;99.90;;;;;;5094875;28;20044;-61
2022/06/18 06:06:45;;;;;;;565.60;529.95;;;18.80;99.90;;;;;;5095266;28;20123;-61
2022/06/18 06:09:13;;;;;;;665.50;620.58;;;18.90;99.90;;;;;;5094813;28;20194;-61
2022/06/18 06:11:39;;;;;;;540.67;509.38;;;19.10;99.90;;;;;;5094502;28;20394;-61
2022/06/18 06:14:08;;;;;;;568.10;532.28;;;19.20;99.90;;;;;;5113543;28;20075;-60
2022/06/18 06:16:34;;;;;;;589.95;551.78;;;19.20;99.90;;;;;;5112005;28;20090;-60
2022/06/18 06:19:01;;;;;;;538.47;506.02;;;19.30;99.90;;;;;;5077918;28;20118;-61
2022/06/18 06:21:27;;;;;;;593.97;558.72;;;19.30;99.90;;;;;;5113399;28;20077;-61
2022/06/18 06:23:53;;;;;;;539.15;508.85;;;19.40;99.90;;;;;;5113482;28;20405;-61
2022/06/18 06:26:24;;;;;;;525.63;494.58;;;19.50;99.90;;;;;;5111687;28;20700;-61
2022/06/18 06:28:50;;;;;;;548.28;515.95;;;19.60;99.90;;;;;;5113236;28;20059;-61
2022/06/18 06:31:16;;;;;;;504.73;474.98;;;19.70;99.90;;;;;;5113542;28;20412;-61
2022/06/18 06:33:42;;;;;;;589.00;554.75;;;19.80;99.90;;;;;;5112309;28;20115;-61
2022/06/18 06:36:11;;;;;;;468.70;442.02;;;19.90;99.90;;;;;;5112884;28;20093;-61
2022/06/18 06:38:37;;;;;;;463.48;438.70;;;20.10;99.90;;;;;;5113333;28;20048;-61
2022/06/18 06:41:10;;;;;;;462.48;437.10;;;20.30;99.90;;;;;;5076684;28;20055;-61
2022/06/18 06:43:36;;;;;;;;;;;20.50;99.90;;;;;;5113644;28;20054;-61
2022/06/18 06:46:02;;;;;;;385.67;366.52;;;20.70;99.90;;;;;;5112524;28;19920;-61
2022/06/18 06:48:28;;;;;;;361.45;343.17;;;20.80;99.90;;;;;;5112409;28;20159;-61
2022/06/18 06:50:54;;;;;;;362.58;344.17;;;20.90;99.90;;;;;;5113793;28;20460;-61
2022/06/18 06:53:20;;;;;;;353.17;335.60;;;21.00;99.90;;;;;;5116318;28;20092;-61
2022/06/18 06:58:31;;;;;;;356.55;338.98;;;21.10;99.90;;;;;;5117249;28;20434;-61
2022/06/18 07:00:57;;;;;;;393.17;373.67;;;21.20;99.90;;;;;;5115922;28;20150;-61
2022/06/18 07:03:28;;;;;;;400.40;380.52;;;21.30;99.90;;;;;;5116873;28;20044;-61
2022/06/18 07:05:57;;;;;;;402.52;382.42;;;21.30;99.90;;;;;;5098693;28;20160;-61
2022/06/18 07:08:23;;;;;;;410.08;389.20;;;21.40;99.90;;;;;;5097722;28;20047;-61
2022/06/18 07:10:50;;;;;;;373.48;355.00;;;21.50;99.90;;;;;;5116480;28;20052;-61
2022/06/18 07:13:16;;;;;;;568.33;535.92;;;21.60;99.90;;;;;;5117097;28;20040;-61
2022/06/18 07:15:43;;;;;;;603.75;569.03;;;21.60;99.90;;;;;;5116232;28;20505;-61
2022/06/18 07:18:17;;;;;;;681.65;639.42;;;21.70;99.90;;;;;;5116516;28;20040;-61
2022/06/18 07:20:42;;;;;;;757.13;707.92;;;21.70;99.90;;;;;;5096416;28;20127;-61
2022/06/18 07:23:09;;;;;;;785.33;733.13;;;21.70;99.90;;;;;;5077462;28;20111;-61
2022/06/18 07:25:35;;;;;;;841.63;782.42;;;21.80;99.90;;;;;;5096082;28;20050;-61
2022/06/18 07:28:01;;;;;;;540.88;501.48;;;21.80;99.90;;;;;;5104366;28;20039;-61
2022/06/18 07:30:27;;;;;;;531.10;493.40;;;21.90;99.90;;;;;;5115988;28;20048;-61
2022/06/18 07:32:53;;;;;;;508.15;468.08;;;21.90;99.90;;;;;;5116313;28;20047;-61
2022/06/18 07:35:25;;;;;;;514.17;476.17;;;21.90;99.90;;;;;;5115946;28;20047;-61
2022/06/18 07:37:53;;;;;;;;;;;22.00;99.90;;;;;;5116731;28;20040;-61
2022/06/18 07:40:20;;;;;;;1566.65;811.50;;;22.00;99.90;;;;;;5115649;28;19920;-61
2022/06/18 07:42:47;;;;;;;525.88;488.20;;;22.00;99.90;;;;;;5115739;28;20478;-61
2022/06/18 07:45:16;;;;;;;413.30;380.65;;;22.00;99.90;;;;;;5116007;28;20474;-61
2022/06/18 07:47:42;;;;;;;712.33;658.30;;;22.10;99.90;;;;;;5115961;28;20370;-61
2022/06/18 07:50:08;;;;;;;589.15;546.17;;;22.10;99.90;;;;;;5115567;28;20048;-61
2022/06/18 07:52:34;;;;;;;582.20;534.67;;;22.20;99.90;;;;;;5115949;28;20059;-61
2022/06/18 07:55:00;;;;;;;630.58;581.15;;;22.40;99.90;;;;;;5115111;28;20043;-61
2022/06/18 07:57:26;;;;;;;431.67;397.05;;;22.50;99.90;;;;;;5114968;28;20047;-61
2022/06/18 07:59:51;;;;;;;387.95;354.58;;;22.40;99.90;;;;;;5116371;28;20489;-61
2022/06/18 08:02:18;;;;;;;716.38;660.58;;;22.50;99.90;;;;;;5114828;28;20130;-61
2022/06/18 08:04:44;;;;;;;349.10;317.85;;;22.50;99.90;;;;;;5096368;28;20052;-61
2022/06/18 08:07:09;;;;;;;1562.55;806.40;;;22.60;99.90;;;;;;5080605;28;20406;-61
2022/06/18 08:09:35;;;;;;;1563.38;808.22;;;22.70;99.90;;;;;;5115280;28;20101;-61
2022/06/18 08:12:02;;;;;;;1585.53;828.20;;;22.70;99.90;;;;;;5096308;28;20043;-61
2022/06/18 08:14:28;;;;;;;1999.90;999.90;;;22.80;99.90;;;;;;5115333;28;20086;-61
2022/06/18 08:16:54;;;;;;;468.20;431.33;;;22.70;99.90;;;;;;5115010;28;20186;-61
2022/06/18 08:19:20;;;;;;;562.15;516.67;;;22.70;99.90;;;;;;5095752;28;20096;-61
2022/06/18 08:21:46;;;;;;;1999.90;999.90;;;22.70;99.90;;;;;;5114428;28;20047;-61
2022/06/18 08:24:17;;;;;;;1999.90;999.90;;;22.70;99.90;;;;;;5114382;28;20388;-61
2022/06/18 08:26:45;;;;;;;1562.50;806.83;;;22.60;99.90;;;;;;5096032;28;20405;-61
2022/06/18 08:29:15;;;;;;;540.97;499.90;;;22.60;99.90;;;;;;5112059;28;20043;-61
2022/06/18 08:31:41;;;;;;;1999.90;999.90;;;22.60;99.90;;;;;;5113883;28;20048;-61
2022/06/18 08:34:07;;;;;;;1999.90;999.90;;;22.70;99.90;;;;;;5114787;28;20043;-61
2022/06/18 08:36:33;;;;;;;1999.90;999.90;;;22.80;99.90;;;;;;5114985;28;20039;-61
2022/06/18 08:39:00;;;;;;;1999.90;999.90;;;22.80;99.90;;;;;;5113286;28;20035;-61
2022/06/18 08:41:49;;;;;;;1999.90;999.90;;;22.80;99.90;;;;;;5114426;28;20394;-61
2022/06/18 08:44:18;;;;;;;432.67;396.92;;;22.80;99.90;;;;;;5074301;28;20055;-60
2022/06/18 08:46:48;;;;;;;1999.90;999.90;;;22.80;99.90;;;;;;5110773;28;20047;-61
2022/06/18 08:49:23;;;;;;;1999.90;999.90;;;22.80;99.90;;;;;;5113832;28;20059;-61
2022/06/18 08:52:04;;;;;;;819.92;544.50;;;22.70;99.90;;;;;;5114416;28;20036;-61
2022/06/18 08:54:49;;;;;;;1999.90;999.90;;;22.80;99.90;;;;;;5112307;28;20463;-61
2022/06/18 08:57:38;;;;;;;1999.90;999.90;;;22.90;99.90;;;;;;5108774;28;20040;-61
2022/06/18 09:00:13;;;;;;;1999.90;999.90;;;22.90;99.90;;;;;;5112871;28;20051;-61
2022/06/18 09:02:56;;;;;;;1999.90;999.90;;;22.80;99.90;;;;;;5114721;28;20432;-61
2022/06/18 09:05:48;;;;;;;1999.90;999.90;;;22.90;99.90;;;;;;5113654;28;20043;-61
2022/06/18 09:08:42;;;;;;;1999.90;999.90;;;22.90;99.90;;;;;;5112000;28;20043;-61
2022/06/18 09:11:22;;;;;;;1999.90;999.90;;;23.00;99.90;;;;;;5094671;28;20086;-61
2022/06/18 09:14:01;;;;;;;1999.90;999.90;;;23.10;99.90;;;;;;5111714;28;20049;-61
2022/06/18 09:16:38;;;;;;;1999.90;999.90;;;23.10;99.90;;;;;;5112957;28;20495;-61
2022/06/18 09:19:07;;;;;;;1999.90;999.90;;;23.20;99.90;;;;;;5111332;28;20043;-61
2022/06/18 09:21:41;;;;;;;1999.90;999.90;;;23.20;99.90;;;;;;5095135;28;20044;-61
2022/06/18 09:24:11;;;;;;;1999.90;999.90;;;23.30;99.90;;;;;;5110944;28;20057;-61
2022/06/18 09:26:40;;;;;;;1999.90;999.90;;;23.50;99.90;;;;;;5080701;28;20072;-61
2022/06/18 09:29:21;;;;;;;1999.90;999.90;;;23.50;99.90;;;;;;5098562;28;20136;-61
2022/06/18 09:32:00;;;;;;;1999.90;999.90;;;23.40;99.90;;;;;;5095436;28;20039;-61
2022/06/18 09:34:43;;;;;;;1999.90;999.90;;;23.20;99.90;;;;;;5114173;28;20043;-61
2022/06/18 09:37:26;;;;;;;1999.90;999.90;;;23.10;99.90;;;;;;5111628;28;20139;-61
2022/06/18 09:39:57;;;;;;;1999.90;999.90;;;23.10;99.90;;;;;;5093943;28;20079;-61
2022/06/18 09:42:39;;;;;;;1999.90;999.90;;;23.10;99.90;;;;;;5113141;28;20442;-61
2022/06/18 09:45:14;;;;;;;1999.90;999.90;;;23.40;99.90;;;;;;5113478;28;20048;-61
2022/06/18 09:47:46;;;;;;;1999.90;999.90;;;23.80;99.90;;;;;;5113072;28;20486;-61
2022/06/18 09:50:15;;;;;;;1999.90;999.90;;;24.20;99.90;;;;;;5112549;28;20393;-61
2022/06/18 09:52:44;;;;;;;1999.90;999.90;;;;;;;;;;5113464;28;20168;-61
2022/06/18 09:55:21;;;;;;;1999.90;999.90;;;24.60;99.90;;;;;;5112660;28;20390;-61
2022/06/18 09:57:53;;;;;;;1999.90;999.90;;;24.50;99.90;;;;;;5109921;28;20095;-61
2022/06/18 10:00:24;;;;;;;1999.90;999.90;;;24.40;99.90;;;;;;5092468;28;20387;-61
2022/06/18 10:02:57;;;;;;;1999.90;999.90;;;24.40;99.90;;;;;;5106238;28;20497;-61
2022/06/18 10:08:34;;;;;;;1999.90;999.90;;;24.50;99.90;;;;;;5107499;28;20446;-61
2022/06/18 10:11:07;;;;;;;1999.90;999.90;;;24.50;99.90;;;;;;5092193;28;20414;-61
2022/06/18 10:13:42;;;;;;;1999.90;999.90;;;24.50;99.90;;;;;;5100030;28;20047;-61
2022/06/18 10:16:20;;;;;;;1999.90;999.90;;;24.50;99.90;;;;;;5112935;28;20493;-61
2022/06/18 10:19:07;;;;;;;1999.90;999.90;;;24.70;99.90;;;;;;5112542;28;20039;-61
2022/06/18 10:21:48;;;;;;;1999.90;999.90;;;24.80;99.90;;;;;;5112150;28;20062;-61
2022/06/18 10:24:26;;;;;;;1999.90;999.90;;;24.70;99.90;;;;;;5112038;28;20077;-61
2022/06/18 10:27:08;;;;;;;1999.90;999.90;;;24.80;99.90;;;;;;5113287;28;20036;-61
2022/06/18 10:30:06;;;;;;;1999.90;999.90;;;25.00;99.90;;;;;;5094333;28;20572;-61
2022/06/18 10:32:57;;;;;;;1999.90;999.90;;;25.30;99.90;;;;;;5111632;28;20039;-61
2022/06/18 10:35:25;;;;;;;1999.90;999.90;;;;;;;;;;5092847;28;20047;-61
2022/06/18 10:37:53;;;;;;;1999.90;999.90;;;26.00;99.90;;;;;;5092027;28;20060;-61
2022/06/18 10:40:24;;;;;;;1999.90;999.90;;;26.30;99.90;;;;;;5100342;28;20055;-62
2022/06/18 10:42:54;;;;;;;1999.90;999.90;;;26.50;99.90;;;;;;5112255;28;20039;-62
2022/06/18 10:45:28;;;;;;;1999.90;999.90;;;;;;;;;;5093742;28;20051;-61
2022/06/18 10:47:55;;;;;;;1999.90;999.90;;;;;;;;;;5113342;28;20066;-61
2022/06/18 10:50:24;;;;;;;1999.90;999.90;;;27.60;99.90;;;;;;5113095;28;20485;-61
2022/06/18 10:52:58;;;;;;;1999.90;999.90;;;;;;;;;;5111746;28;20447;-61
2022/06/18 10:55:24;;;;;;;1999.90;999.90;;;;;;;;;;5113188;28;20094;-61
2022/06/18 10:57:51;;;;;;;1999.90;999.90;;;;;;;;;;5112237;28;20106;-61
2022/06/18 11:00:26;;;;;;;1999.90;999.90;;;;;;;;;;5112024;28;20036;-61
2022/06/18 11:02:56;;;;;;;1999.90;999.90;;;27.50;99.90;;;;;;5112929;28;20086;-61
2022/06/18 11:05:34;;;;;;;1999.90;999.90;;;;;;;;;;5094267;28;20087;-61
2022/06/18 11:08:04;;;;;;;1999.90;999.90;;;26.60;99.90;;;;;;5112371;28;20050;-61
2022/06/18 11:10:43;;;;;;;1999.90;999.90;;;26.40;99.90;;;;;;5094628;28;20039;-61
2022/06/18 11:13:22;;;;;;;1999.90;999.90;;;26.30;99.90;;;;;;5111719;28;20397;-61
2022/06/18 11:15:48;;;;;;;1999.90;999.90;;;26.30;99.90;;;;;;5112579;28;20485;-61
2022/06/18 11:18:18;;;;;;;1999.90;999.90;;;26.40;99.90;;;;;;5107427;28;20044;-61
2022/06/18 11:21:04;;;;;;;1999.90;999.90;;;26.40;99.90;;;;;;5090022;28;20048;-61
2022/06/18 11:23:35;;;;;;;1999.90;999.90;;;26.80;99.90;;;;;;5110474;28;20043;-61
2022/06/18 11:26:02;;;;;;;1999.90;999.90;;;27.20;99.90;;;;;;5092750;28;20134;-61
2022/06/18 11:28:36;;;;;;;1999.90;999.90;;;27.60;99.90;;;;;;5111517;28;20044;-61
2022/06/18 11:31:04;;;;;;;1999.90;999.90;;;27.60;99.90;;;;;;5094347;28;20043;-62
2022/06/18 11:33:34;;;;;;;1999.90;999.90;;;27.30;99.90;;;;;;5112791;28;20083;-61
2022/06/18 11:36:11;;;;;;;1999.90;999.90;;;27.50;99.90;;;;;;5109970;28;20047;-62
2022/06/18 11:38:38;;;;;;;1999.90;999.90;;;28.10;99.90;;;;;;5081481;28;20482;-61
2022/06/18 11:41:19;;;;;;;1999.90;999.90;;;28.40;99.90;;;;;;5095557;28;20099;-62
2022/06/18 11:43:50;;;;;;;1999.90;999.90;;;;;;;;;;5104665;28;20044;-62
2022/06/18 11:46:28;;;;;;;1999.90;999.90;;;28.90;93.10;;;;;;5116088;28;20439;-62
2022/06/18 11:49:06;;;;;;;1999.90;999.90;;;29.20;93.00;;;;;;5115395;28;20089;-62
2022/06/18 11:51:40;;;;;;;1999.90;999.90;;;29.30;91.90;;;;;;5115195;28;20051;-61
2022/06/18 11:54:28;;;;;;;1999.90;999.90;;;29.50;92.20;;;;;;5115323;28;20105;-62
2022/06/18 11:57:04;;;;;;;1999.90;999.90;;;29.50;89.80;;;;;;5115061;28;20055;-61
2022/06/18 11:59:53;;;;;;;1999.90;999.90;;;28.90;88.90;;;;;;5116192;28;20054;-62
2022/06/18 12:02:28;;;;;;;1999.90;999.90;;;28.20;92.00;;;;;;5112390;28;20039;-61
2022/06/18 12:05:02;;;;;;;1999.90;999.90;;;28.20;92.40;;;;;;5115244;28;20067;-61
2022/06/18 12:07:36;;;;;;;1999.90;999.90;;;28.30;92.20;;;;;;5115860;28;20043;-62
2022/06/18 12:10:08;;;;;;;1999.90;999.90;;;28.20;92.00;;;;;;5114446;28;20051;-61
2022/06/18 12:12:51;;;;;;;1999.90;999.90;;;28.20;92.40;;;;;;5115046;28;20040;-61
2022/06/18 12:15:23;;;;;;;;;;;28.10;92.20;;;;;;5115369;28;20043;-62
2022/06/18 12:18:02;;;;;;;1999.90;999.90;;;27.90;92.10;;;;;;5093360;28;20396;-62
2022/06/18 12:20:36;;;;;;;1999.90;999.90;;;28.00;92.50;;;;;;5111159;28;20036;-62
2022/06/18 12:23:09;;;;;;;1999.90;999.90;;;28.30;91.70;;;;;;5097026;28;20165;-61
2022/06/18 12:25:58;;;;;;;1999.90;999.90;;;28.30;91.00;;;;;;5112666;28;20545;-62
2022/06/18 12:28:49;;;;;;;1999.90;999.90;;;28.60;91.10;;;;;;5113725;28;20114;-62
2022/06/18 12:31:23;;;;;;;1999.90;999.90;;;28.60;90.00;;;;;;5095793;28;20048;-62
2022/06/18 12:34:18;;;;;;;1999.90;999.90;;;28.40;89.90;;;;;;5114838;28;20089;-62
2022/06/18 12:36:58;;;;;;;1999.90;999.90;;;28.20;88.90;;;;;;5114038;28;20124;-62
2022/06/18 12:39:43;;;;;;;1999.90;999.90;;;27.80;88.50;;;;;;5110843;28;20043;-62